^^
WestSenecaWeather Station Historical Data
 
Daily Summary for April 19, 2019 Units:  English    Metric   Both
Daily Weekly Monthly Yearly Custom
  Current: High: Low: Average:
Temperature: 58.5 °F 63.3 °F 52.6 °F 57.1 °F
Dew Point: 55.6 °F 61.3 °F 51.2 °F 54.4 °F
Humidity: 90% 97% 73% 91%
Wind Speed: 11.5mph 11.5mph 0.0mph 2.4mph
Wind Gust: 8.6mph 8.6mph - -
WindEast - - SW
Pressure: 29.55 in 29.60 in 29.50 in -
Precipitation: 0.09 in      
Historical Graphs
 
 
Tabular Data for April 19, 2019
Time Temperature Dew Point Pressure Wind Wind Speed Wind Gust Humidity Rainfall Rate (Hourly) solar
00:04 60.3 °F 51.6 °F 29.60 in NW 2.3 mph 2.0 mph 73% 0.00 in WeatherDisplay:10.37 W/m2
00:09 60.3 °F 51.6 °F 29.60 in WNW 4.6 mph 1.6 mph 73% 0.00 in WeatherDisplay:10.37 W/m2
00:14 60.4 °F 52.1 °F 29.60 in NNW 3.5 mph 1.2 mph 74% 0.00 in WeatherDisplay:10.37 W/m2
00:19 60.5 °F 52.2 °F 29.59 in NW 3.5 mph 2.6 mph 74% 0.00 in WeatherDisplay:10.37 W/m2
00:24 60.5 °F 52.2 °F 29.59 in WNW 3.5 mph 2.8 mph 74% 0.00 in WeatherDisplay:10.37 W/m2
00:29 60.6 °F 52.6 °F 29.59 in NW 3.5 mph 2.2 mph 75% 0.00 in WeatherDisplay:10.37 W/m2
00:34 60.5 °F 52.5 °F 29.59 in NW 3.5 mph 2.1 mph 75% 0.00 in WeatherDisplay:10.37 W/m2
00:39 60.5 °F 52.9 °F 29.58 in NW 2.3 mph   76% 0.00 in WeatherDisplay:10.37 W/m2
00:44 60.3 °F 52.7 °F 29.58 in Calm     76% 0.00 in WeatherDisplay:10.37 W/m2
00:49 60.1 °F 52.5 °F 29.58 in NW 1.2 mph 0.4 mph 76% 0.00 in WeatherDisplay:10.37 W/m2
00:54 60.0 °F 52.8 °F 29.58 in Calm     77% 0.00 in WeatherDisplay:10.37 W/m2
00:59 59.7 °F 52.5 °F 29.58 in Calm     77% 0.00 in WeatherDisplay:10.37 W/m2
01:04 59.4 °F 52.2 °F 29.59 in NW 1.2 mph 0.8 mph 77% 0.00 in WeatherDisplay:10.37 W/m2
01:09 59.1 °F 52.2 °F 29.58 in Calm     78% 0.00 in WeatherDisplay:10.37 W/m2
01:14 58.8 °F 52.3 °F 29.59 in Calm     79% 0.00 in WeatherDisplay:10.37 W/m2
01:19 58.7 °F 52.5 °F 29.58 in Calm     80% 0.00 in WeatherDisplay:10.37 W/m2
01:24 58.5 °F 52.4 °F 29.58 in NW 1.2 mph 0.4 mph 80% 0.00 in WeatherDisplay:10.37 W/m2
01:29 58.2 °F 52.1 °F 29.58 in Calm     80% 0.00 in WeatherDisplay:10.37 W/m2
01:34 57.9 °F 52.1 °F 29.57 in Calm     81% 0.00 in WeatherDisplay:10.37 W/m2
01:39 57.8 °F 52.3 °F 29.57 in Calm     82% 0.00 in WeatherDisplay:10.37 W/m2
01:44 57.7 °F 52.2 °F 29.57 in NW 1.2 mph   82% 0.00 in WeatherDisplay:10.37 W/m2
01:49 57.6 °F 52.1 °F 29.57 in Calm     82% 0.00 in WeatherDisplay:10.37 W/m2
01:54 57.5 °F 52.4 °F 29.57 in Calm     83% 0.00 in WeatherDisplay:10.37 W/m2
01:59 57.4 °F 52.3 °F 29.56 in Calm     83% 0.00 in WeatherDisplay:10.37 W/m2
02:04 57.2 °F 52.1 °F 29.56 in Calm     83% 0.00 in WeatherDisplay:10.37 W/m2
02:09 57.0 °F 52.2 °F 29.56 in Calm     84% 0.00 in WeatherDisplay:10.37 W/m2
02:14 56.8 °F 52.0 °F 29.56 in Calm     84% 0.00 in WeatherDisplay:10.37 W/m2
02:19 56.7 °F 52.2 °F 29.56 in Calm     85% 0.00 in WeatherDisplay:10.37 W/m2
02:24 56.6 °F 52.1 °F 29.56 in Calm     85% 0.00 in WeatherDisplay:10.37 W/m2
02:29 56.6 °F 52.1 °F 29.56 in Calm     85% 0.00 in WeatherDisplay:10.37 W/m2
02:34 56.6 °F 52.5 °F 29.55 in Calm     86% 0.00 in WeatherDisplay:10.37 W/m2
02:39 56.6 °F 52.5 °F 29.56 in Calm     86% 0.00 in WeatherDisplay:10.37 W/m2
02:44 56.5 °F 52.4 °F 29.56 in Calm     86% 0.00 in WeatherDisplay:10.37 W/m2
02:49 56.4 °F 52.3 °F 29.55 in Calm     86% 0.00 in WeatherDisplay:10.37 W/m2
02:54 56.3 °F 52.2 °F 29.55 in Calm     86% 0.00 in WeatherDisplay:10.37 W/m2
02:59 56.1 °F 52.0 °F 29.55 in Calm     86% 0.00 in WeatherDisplay:10.37 W/m2
03:04 56.0 °F 52.2 °F 29.55 in Calm     87% 0.00 in WeatherDisplay:10.37 W/m2
03:09 56.1 °F 52.3 °F 29.55 in Calm     87% 0.00 in WeatherDisplay:10.37 W/m2
03:14 56.1 °F 52.6 °F 29.54 in Calm     88% 0.00 in WeatherDisplay:10.37 W/m2
03:19 56.1 °F 52.6 °F 29.54 in Calm     88% 0.00 in WeatherDisplay:10.37 W/m2
03:24 56.3 °F 52.8 °F 29.54 in Calm     88% 0.00 in WeatherDisplay:10.37 W/m2
03:29 56.3 °F 52.8 °F 29.53 in Calm     88% 0.00 in WeatherDisplay:10.37 W/m2
03:34 56.2 °F 52.7 °F 29.54 in Calm     88% 0.00 in WeatherDisplay:10.37 W/m2
03:39 56.0 °F 52.5 °F 29.54 in Calm     88% 0.00 in WeatherDisplay:10.37 W/m2
03:44 56.0 °F 52.5 °F 29.53 in Calm     88% 0.00 in WeatherDisplay:10.37 W/m2
03:49 56.0 °F 52.8 °F 29.53 in Calm     89% 0.00 in WeatherDisplay:10.37 W/m2
03:54 56.1 °F 52.9 °F 29.53 in Calm     89% 0.00 in WeatherDisplay:10.37 W/m2
03:59 56.1 °F 52.9 °F 29.53 in Calm     89% 0.00 in WeatherDisplay:10.37 W/m2
04:04 56.0 °F 52.8 °F 29.54 in Calm     89% 0.00 in WeatherDisplay:10.37 W/m2
04:09 55.8 °F 52.3 °F 29.54 in NW 3.0 mph 0.2 mph 88% 0.00 in WeatherDisplay:10.37 W/m2
04:14 55.3 °F 51.8 °F 29.55 in NW 3.5 mph 2.2 mph 88% 0.00 in WeatherDisplay:10.37 W/m2
04:19 55.0 °F 51.8 °F 29.55 in NW 3.5 mph 1.5 mph 89% 0.00 in WeatherDisplay:10.37 W/m2
04:24 55.0 °F 52.1 °F 29.55 in NW 2.3 mph 1.3 mph 90% 0.00 in WeatherDisplay:10.37 W/m2
04:29 55.0 °F 52.1 °F 29.56 in Calm     90% 0.00 in WeatherDisplay:10.37 W/m2
04:34 55.0 °F 52.1 °F 29.55 in Calm     90% 0.00 in WeatherDisplay:10.37 W/m2
04:39 55.0 °F 52.1 °F 29.55 in Calm     90% 0.00 in WeatherDisplay:10.37 W/m2
04:44 55.0 °F 52.1 °F 29.55 in Calm     90% 0.00 in WeatherDisplay:10.37 W/m2
04:49 55.0 °F 52.1 °F 29.54 in Calm     90% 0.00 in WeatherDisplay:10.37 W/m2
04:54 55.1 °F 52.2 °F 29.54 in Calm     90% 0.00 in WeatherDisplay:10.37 W/m2
04:59 55.1 °F 52.2 °F 29.54 in NW 1.0 mph 0.1 mph 90% 0.00 in WeatherDisplay:10.37 W/m2
05:04 55.1 °F 52.2 °F 29.54 in NW 2.0 mph 0.7 mph 90% 0.00 in WeatherDisplay:10.37 W/m2
05:09 55.2 °F 52.6 °F 29.54 in NW 1.2 mph 0.1 mph 91% 0.00 in WeatherDisplay:10.37 W/m2
05:14 55.3 °F 52.7 °F 29.53 in NW 1.2 mph   91% 0.00 in WeatherDisplay:10.37 W/m2
05:19 55.6 °F 53.3 °F 29.53 in NW 3.5 mph 2.7 mph 92% 0.00 in WeatherDisplay:10.37 W/m2
05:24 55.7 °F 53.4 °F 29.53 in NW 3.5 mph 1.6 mph 92% 0.00 in WeatherDisplay:10.37 W/m2
05:29 55.8 °F 53.5 °F 29.53 in Calm     92% 0.00 in WeatherDisplay:10.37 W/m2
05:34 55.9 °F 53.6 °F 29.52 in NNW 5.8 mph 1.4 mph 92% 0.00 in WeatherDisplay:10.37 W/m2
05:39 55.9 °F 53.6 °F 29.52 in NE 3.5 mph 1.8 mph 92% 0.00 in WeatherDisplay:10.37 W/m2
05:44 55.7 °F 53.7 °F 29.52 in NE 3.5 mph 1.9 mph 93% 0.00 in WeatherDisplay:10.37 W/m2
05:49 55.4 °F 53.4 °F 29.53 in NE 4.0 mph 2.8 mph 93% 0.00 in WeatherDisplay:10.37 W/m2
05:54 55.1 °F 53.1 °F 29.52 in NE 3.5 mph 2.9 mph 93% 0.00 in WeatherDisplay:10.37 W/m2
05:59 54.8 °F 53.1 °F 29.53 in NE 3.5 mph 1.7 mph 94% 0.00 in WeatherDisplay:10.37 W/m2
06:04 54.7 °F 53.0 °F 29.53 in NE 2.0 mph 1.8 mph 94% 0.00 in WeatherDisplay:10.37 W/m2
06:09 54.4 °F 52.7 °F 29.52 in NE 3.5 mph 1.4 mph 94% 0.00 in WeatherDisplay:10.37 W/m2
06:14 54.2 °F 52.5 °F 29.52 in NE 3.5 mph 1.8 mph 94% 0.00 in WeatherDisplay:10.37 W/m2
06:19 54.0 °F 52.3 °F 29.52 in NE 2.3 mph 1.7 mph 94% 0.00 in WeatherDisplay:10.37 W/m2
06:24 53.9 °F 52.2 °F 29.52 in NNW 4.6 mph 0.9 mph 94% 0.00 in WeatherDisplay:10.37 W/m2
06:29 53.7 °F 52.0 °F 29.52 in NNW 3.5 mph 0.6 mph 94% 0.00 in WeatherDisplay:10.37 W/m2
06:34 53.6 °F 51.9 °F 29.52 in NNW 2.3 mph 0.4 mph 94% 0.00 in WeatherDisplay:10.37 W/m2
06:39 53.5 °F 52.1 °F 29.52 in NNW 2.3 mph 1.4 mph 95% 0.00 in WeatherDisplay:10.37 W/m2
06:44 53.3 °F 51.9 °F 29.52 in NNW 3.5 mph 2.3 mph 95% 0.00 in WeatherDisplay:10.37 W/m2
06:49 53.2 °F 51.8 °F 29.52 in NW 3.5 mph 2.3 mph 95% 0.00 in WeatherDisplay:10.37 W/m2
06:54 53.0 °F 51.6 °F 29.52 in NW 3.5 mph 2.2 mph 95% 0.00 in WeatherDisplay:10.37 W/m2
06:59 52.9 °F 51.5 °F 29.53 in NW 3.5 mph 0.9 mph 95% 0.00 in WeatherDisplay:10.37 W/m2
07:04 52.7 °F 51.3 °F 29.53 in NW 3.5 mph 1.9 mph 95% 0.00 in WeatherDisplay:10.37 W/m2
07:09 52.6 °F 51.2 °F 29.53 in NW 2.3 mph 0.4 mph 95% 0.00 in WeatherDisplay:10.37 W/m2
07:14 52.6 °F 51.2 °F 29.52 in Calm     95% 0.00 in WeatherDisplay:10.37 W/m2
07:19 52.6 °F 51.2 °F 29.53 in NW 1.2 mph 0.3 mph 95% 0.00 in WeatherDisplay:10.37 W/m2
07:24 52.7 °F 51.6 °F 29.53 in NW 2.3 mph 2.6 mph 96% 0.00 in WeatherDisplay:10.37 W/m2
07:29 52.7 °F 51.6 °F 29.52 in NW 1.2 mph   96% 0.00 in WeatherDisplay:10.37 W/m2
07:34 52.9 °F 51.8 °F 29.53 in NW 4.0 mph 1.5 mph 96% 0.00 in WeatherDisplay:10.37 W/m2
07:39 53.0 °F 51.9 °F 29.53 in Calm     96% 0.00 in WeatherDisplay:10.37 W/m2
07:44 53.1 °F 52.0 °F 29.53 in Calm     96% 0.00 in WeatherDisplay:10.37 W/m2
07:49 53.2 °F 52.1 °F 29.53 in WNW 1.2 mph   96% 0.00 in WeatherDisplay:10.37 W/m2
07:54 53.3 °F 52.2 °F 29.54 in Calm     96% 0.00 in WeatherDisplay:10.37 W/m2
07:59 53.3 °F 52.2 °F 29.54 in WNW 2.3 mph 0.7 mph 96% 0.00 in WeatherDisplay:10.37 W/m2
08:04 53.3 °F 52.2 °F 29.54 in WNW 1.2 mph 0.1 mph 96% 0.00 in WeatherDisplay:10.37 W/m2
08:09 53.3 °F 52.2 °F 29.54 in WNW 1.0 mph 0.1 mph 96% 0.00 in WeatherDisplay:10.37 W/m2
08:14 53.3 °F 52.2 °F 29.54 in WNW 1.2 mph   96% 0.00 in WeatherDisplay:10.37 W/m2
08:19 53.4 °F 52.3 °F 29.54 in Calm     96% 0.00 in WeatherDisplay:10.37 W/m2
08:24 53.4 °F 52.3 °F 29.53 in Calm     96% 0.00 in WeatherDisplay:10.37 W/m2
08:29 53.5 °F 52.4 °F 29.53 in Calm     96% 0.00 in WeatherDisplay:10.37 W/m2
08:34 53.7 °F 52.6 °F 29.53 in Calm     96% 0.00 in WeatherDisplay:10.37 W/m2
08:39 53.8 °F 52.7 °F 29.53 in WNW 1.2 mph 0.1 mph 96% 0.01 in WeatherDisplay:10.37 W/m2
08:44 54.0 °F 53.2 °F 29.53 in WNW 1.2 mph   97% 0.01 in WeatherDisplay:10.37 W/m2
08:49 54.2 °F 53.1 °F 29.53 in Calm     96% 0.01 in WeatherDisplay:10.37 W/m2
08:54 54.3 °F 53.2 °F 29.53 in WNW 3.5 mph 1.8 mph 96% 0.01 in WeatherDisplay:10.37 W/m2
08:59 54.5 °F 53.7 °F 29.53 in WNW 1.2 mph 0.4 mph 97% 0.01 in WeatherDisplay:10.37 W/m2
09:04 54.7 °F 53.9 °F 29.53 in WNW 2.3 mph 0.9 mph 97% 0.01 in WeatherDisplay:10.37 W/m2
09:09 54.7 °F 53.9 °F 29.54 in WNW 2.3 mph 1.7 mph 97% 0.01 in WeatherDisplay:10.37 W/m2
09:14 54.8 °F 53.7 °F 29.53 in Calm     96% 0.01 in WeatherDisplay:10.37 W/m2
09:19 54.9 °F 54.1 °F 29.53 in SW 1.2 mph   97% 0.01 in WeatherDisplay:10.37 W/m2
09:24 55.0 °F 54.2 °F 29.53 in SW 1.2 mph 0.7 mph 97% 0.01 in WeatherDisplay:10.37 W/m2
09:29 55.1 °F 54.3 °F 29.54 in SW 1.2 mph 1.2 mph 97% 0.01 in WeatherDisplay:10.37 W/m2
09:34 55.2 °F 54.4 °F 29.54 in SW 2.0 mph 0.4 mph 97% 0.01 in WeatherDisplay:10.37 W/m2
09:39 55.3 °F 54.5 °F 29.54 in SW 3.5 mph 1.1 mph 97% 0.01 in WeatherDisplay:10.37 W/m2
09:44 55.5 °F 54.7 °F 29.53 in SW 1.2 mph 0.6 mph 97% 0.01 in WeatherDisplay:10.37 W/m2
09:49 55.8 °F 55.0 °F 29.53 in SW 2.0 mph 0.3 mph 97% 0.01 in WeatherDisplay:10.37 W/m2
09:54 56.0 °F 55.2 °F 29.53 in SW 1.2 mph 0.8 mph 97% 0.01 in WeatherDisplay:10.37 W/m2
09:59 56.3 °F 55.5 °F 29.53 in SW 2.3 mph 1.2 mph 97% 0.01 in WeatherDisplay:10.37 W/m2
10:04 56.6 °F 55.8 °F 29.52 in SSW 4.0 mph 3.2 mph 97% 0.01 in WeatherDisplay:10.37 W/m2
10:09 56.8 °F 56.0 °F 29.53 in SSW 3.5 mph 3.0 mph 97% 0.01 in WeatherDisplay:10.37 W/m2
10:14 56.9 °F 56.1 °F 29.53 in SSW 2.3 mph 1.4 mph 97% 0.01 in WeatherDisplay:10.37 W/m2
10:19 56.9 °F 56.1 °F 29.53 in SSW 3.5 mph 2.1 mph 97% 0.01 in WeatherDisplay:10.37 W/m2
10:24 57.1 °F 56.3 °F 29.53 in SSW 1.2 mph 0.3 mph 97% 0.01 in WeatherDisplay:10.37 W/m2
10:29 57.3 °F 56.5 °F 29.53 in SSW 2.3 mph 0.2 mph 97% 0.02 in WeatherDisplay:10.37 W/m2
10:34 57.6 °F 56.8 °F 29.53 in SSW 2.3 mph 1.2 mph 97% 0.02 in WeatherDisplay:10.37 W/m2
10:39 57.7 °F 56.9 °F 29.53 in SW 3.5 mph 1.4 mph 97% 0.01 in WeatherDisplay:10.37 W/m2
10:44 57.9 °F 57.1 °F 29.53 in SW 3.5 mph 1.5 mph 97% 0.02 in WeatherDisplay:10.37 W/m2
10:49 58.0 °F 57.2 °F 29.53 in SW 2.3 mph 1.4 mph 97% 0.02 in WeatherDisplay:10.37 W/m2
10:54 58.2 °F 57.4 °F 29.53 in SW 3.5 mph 2.5 mph 97% 0.03 in WeatherDisplay:10.37 W/m2
10:59 58.2 °F 57.4 °F 29.52 in SSW 3.5 mph 2.6 mph 97% 0.03 in WeatherDisplay:10.37 W/m2
11:04 58.3 °F 57.5 °F 29.52 in SSW 3.5 mph 0.6 mph 97% 0.03 in WeatherDisplay:10.37 W/m2
11:09 58.4 °F 57.6 °F 29.53 in SSW 2.3 mph 0.1 mph 97% 0.03 in WeatherDisplay:10.37 W/m2
11:14 58.5 °F 57.7 °F 29.53 in SSW 2.3 mph 1.4 mph 97% 0.05 in WeatherDisplay:10.37 W/m2
11:19 58.7 °F 57.9 °F 29.53 in SSW 2.3 mph   97% 0.06 in WeatherDisplay:10.37 W/m2
11:24 58.7 °F 57.9 °F 29.52 in SSE 3.5 mph 2.0 mph 97% 0.06 in WeatherDisplay:10.37 W/m2
11:29 58.7 °F 57.9 °F 29.52 in SSE 3.5 mph 2.4 mph 97% 0.05 in WeatherDisplay:10.37 W/m2
11:34 58.7 °F 57.9 °F 29.52 in SSE 3.5 mph 0.3 mph 97% 0.05 in WeatherDisplay:10.37 W/m2
11:39 58.7 °F 57.9 °F 29.52 in SSE 2.3 mph 1.9 mph 97% 0.06 in WeatherDisplay:10.37 W/m2
11:44 58.8 °F 58.0 °F 29.52 in SSW 3.5 mph 2.1 mph 97% 0.05 in WeatherDisplay:10.37 W/m2
11:49 58.9 °F 58.1 °F 29.52 in SSW 3.5 mph 2.1 mph 97% 0.05 in WeatherDisplay:10.37 W/m2
11:54 59.0 °F 58.2 °F 29.52 in SSW 3.5 mph 2.4 mph 97% 0.04 in WeatherDisplay:10.37 W/m2
11:59 59.1 °F 58.2 °F 29.52 in SE 4.6 mph 3.2 mph 97% 0.04 in WeatherDisplay:10.37 W/m2
12:04 59.3 °F 58.4 °F 29.52 in SE 2.3 mph 1.3 mph 97% 0.04 in WeatherDisplay:10.37 W/m2
12:09 59.3 °F 58.4 °F 29.52 in SSE 3.5 mph 2.7 mph 97% 0.04 in WeatherDisplay:10.37 W/m2
12:14 59.5 °F 58.6 °F 29.52 in SSE 3.5 mph 1.4 mph 97% 0.02 in WeatherDisplay:10.37 W/m2
12:19 59.8 °F 58.9 °F 29.51 in South 3.0 mph 2.6 mph 97% 0.01 in WeatherDisplay:10.37 W/m2
12:24 60.0 °F 59.1 °F 29.51 in South 4.0 mph 2.2 mph 97% 0.01 in WeatherDisplay:10.37 W/m2
12:29 60.4 °F 59.5 °F 29.51 in SSE 4.0 mph 2.6 mph 97% 0.01 in WeatherDisplay:10.37 W/m2
12:34 60.7 °F 59.8 °F 29.51 in SSE 4.0 mph 3.6 mph 97% 0.01 in WeatherDisplay:10.37 W/m2
12:39 60.9 °F 59.8 °F 29.51 in SSE 3.5 mph 2.2 mph 96% 0.00 in WeatherDisplay:10.37 W/m2
12:44 61.2 °F 60.1 °F 29.51 in SSE 3.5 mph 2.0 mph 96% 0.00 in WeatherDisplay:10.37 W/m2
12:49 61.5 °F 60.1 °F 29.51 in SSE 5.8 mph 3.2 mph 95% 0.00 in WeatherDisplay:10.37 W/m2
12:54 62.5 °F 61.3 °F 29.50 in SSE 7.0 mph 3.5 mph 96% 0.00 in WeatherDisplay:10.37 W/m2
12:59 62.6 °F 60.5 °F 29.50 in SSE 8.1 mph 5.4 mph 93% 0.00 in WeatherDisplay:10.37 W/m2
13:04 62.8 °F 60.4 °F 29.51 in SSE 4.6 mph 2.3 mph 92% 0.00 in WeatherDisplay:10.37 W/m2
13:09 63.1 °F 60.7 °F 29.51 in ESE 4.0 mph 4.0 mph 92% 0.00 in WeatherDisplay:10.37 W/m2
13:14 63.2 °F 60.5 °F 29.51 in South 4.6 mph 3.9 mph 91% 0.00 in WeatherDisplay:10.37 W/m2
13:19 63.1 °F 59.8 °F 29.51 in SE 8.1 mph 7.3 mph 89% 0.00 in WeatherDisplay:10.37 W/m2
13:24 63.0 °F 59.7 °F 29.52 in ENE 4.6 mph 3.0 mph 89% 0.00 in WeatherDisplay:10.37 W/m2
13:29 62.6 °F 59.3 °F 29.52 in East 10.4 mph 3.8 mph 89% 0.00 in WeatherDisplay:10.37 W/m2
13:34 62.5 °F 59.5 °F 29.52 in East 6.0 mph 5.2 mph 90% 0.00 in WeatherDisplay:10.37 W/m2
13:39 62.2 °F 59.2 °F 29.52 in SE 4.6 mph 3.2 mph 90% 0.00 in WeatherDisplay:10.37 W/m2
13:44 62.1 °F 59.4 °F 29.52 in SSE 4.0 mph 3.1 mph 91% 0.00 in WeatherDisplay:10.37 W/m2
13:49 62.3 °F 59.9 °F 29.52 in SE 6.9 mph 4.1 mph 92% 0.00 in WeatherDisplay:10.37 W/m2
13:54 62.7 °F 60.6 °F 29.52 in ESE 6.9 mph 3.3 mph 93% 0.00 in WeatherDisplay:10.37 W/m2
13:59 63.0 °F 60.9 °F 29.52 in ESE 4.6 mph 2.3 mph 93% 0.00 in WeatherDisplay:10.37 W/m2
14:04 63.3 °F 60.9 °F 29.52 in East 9.2 mph 5.9 mph 92% 0.00 in WeatherDisplay:10.37 W/m2
14:09 63.0 °F 60.0 °F 29.53 in East 8.1 mph 5.6 mph 90% 0.00 in WeatherDisplay:10.37 W/m2
14:14 61.9 °F 58.6 °F 29.54 in East 11.0 mph 7.1 mph 89% 0.00 in WeatherDisplay:10.37 W/m2
14:19 60.8 °F 57.8 °F 29.54 in East 9.2 mph 7.6 mph 90% 0.00 in WeatherDisplay:10.37 W/m2
14:24 59.6 °F 57.0 °F 29.54 in East 9.2 mph 6.0 mph 91% 0.00 in WeatherDisplay:10.37 W/m2
14:29 58.5 °F 55.6 °F 29.55 in East 11.5 mph 8.6 mph 90% 0.00 in WeatherDisplay:10.37 W/m2
west seneca weather
Compliments of Weather Underground - 2 mb